sensor_id;sensor_type;location;lat;lon;timestamp;pressure;altitude;pressure_sealevel;temperature;humidity
62038;BME280;47991;42.974;12.082;2022-10-26T00:01:11;98350.52;;;14.80;85.46
62038;BME280;47991;42.974;12.082;2022-10-26T00:03:41;98348.20;;;14.95;85.26
62038;BME280;47991;42.974;12.082;2022-10-26T00:06:18;98348.08;;;15.03;84.94
62038;BME280;47991;42.974;12.082;2022-10-26T00:08:47;98351.33;;;15.02;84.61
62038;BME280;47991;42.974;12.082;2022-10-26T00:11:15;98353.09;;;15.02;84.63
62038;BME280;47991;42.974;12.082;2022-10-26T00:13:42;98359.71;;;15.01;84.67
62038;BME280;47991;42.974;12.082;2022-10-26T00:16:15;98359.91;;;15.05;84.50
62038;BME280;47991;42.974;12.082;2022-10-26T00:18:44;98361.50;;;14.96;84.21
62038;BME280;47991;42.974;12.082;2022-10-26T00:21:12;98367.02;;;14.91;84.34
62038;BME280;47991;42.974;12.082;2022-10-26T00:23:39;98365.90;;;14.87;84.50
62038;BME280;47991;42.974;12.082;2022-10-26T00:26:07;98365.77;;;14.86;84.55
62038;BME280;47991;42.974;12.082;2022-10-26T00:28:35;98363.34;;;14.84;84.39
62038;BME280;47991;42.974;12.082;2022-10-26T00:31:07;98367.83;;;14.84;84.92
62038;BME280;47991;42.974;12.082;2022-10-26T00:33:35;98367.33;;;14.83;84.95
62038;BME280;47991;42.974;12.082;2022-10-26T00:36:03;98369.77;;;14.84;85.08
62038;BME280;47991;42.974;12.082;2022-10-26T00:38:30;98365.25;;;14.81;84.96
62038;BME280;47991;42.974;12.082;2022-10-26T00:40:57;98369.02;;;14.75;84.76
62038;BME280;47991;42.974;12.082;2022-10-26T00:45:53;98364.51;;;14.67;85.63
62038;BME280;47991;42.974;12.082;2022-10-26T00:48:32;98368.38;;;14.63;85.30
62038;BME280;47991;42.974;12.082;2022-10-26T00:51:08;98360.58;;;14.62;85.99
62038;BME280;47991;42.974;12.082;2022-10-26T00:53:37;98364.61;;;14.58;86.35
62038;BME280;47991;42.974;12.082;2022-10-26T00:56:05;98364.79;;;14.58;86.64
62038;BME280;47991;42.974;12.082;2022-10-26T00:58:33;98362.04;;;14.61;86.60
62038;BME280;47991;42.974;12.082;2022-10-26T01:01:02;98363.71;;;14.64;86.56
62038;BME280;47991;42.974;12.082;2022-10-26T01:03:30;98365.42;;;14.66;86.45
62038;BME280;47991;42.974;12.082;2022-10-26T01:05:58;98366.22;;;14.69;86.51
62038;BME280;47991;42.974;12.082;2022-10-26T01:08:26;98363.80;;;14.62;87.32
62038;BME280;47991;42.974;12.082;2022-10-26T01:10:56;98366.44;;;14.57;86.81
62038;BME280;47991;42.974;12.082;2022-10-26T01:13:26;98362.34;;;14.62;86.84
62038;BME280;47991;42.974;12.082;2022-10-26T01:22:09;98368.70;;;14.69;87.20
62038;BME280;47991;42.974;12.082;2022-10-26T01:27:46;98365.88;;;14.41;88.06
62038;BME280;47991;42.974;12.082;2022-10-26T01:33:14;98368.54;;;14.42;87.42
62038;BME280;47991;42.974;12.082;2022-10-26T01:35:52;98374.17;;;14.38;87.38
62038;BME280;47991;42.974;12.082;2022-10-26T01:38:46;98376.69;;;14.37;87.14
62038;BME280;47991;42.974;12.082;2022-10-26T01:44:00;98373.88;;;14.36;87.17
62038;BME280;47991;42.974;12.082;2022-10-26T01:46:34;98373.93;;;14.35;87.15
62038;BME280;47991;42.974;12.082;2022-10-26T01:49:09;98371.73;;;14.37;87.09
62038;BME280;47991;42.974;12.082;2022-10-26T01:51:41;98365.34;;;14.36;86.77
62038;BME280;47991;42.974;12.082;2022-10-26T01:54:10;98360.90;;;14.36;86.99
62038;BME280;47991;42.974;12.082;2022-10-26T01:56:39;98356.80;;;14.37;86.84
62038;BME280;47991;42.974;12.082;2022-10-26T02:01:56;98349.34;;;14.36;86.83
62038;BME280;47991;42.974;12.082;2022-10-26T02:10:15;98341.59;;;14.29;87.13
62038;BME280;47991;42.974;12.082;2022-10-26T02:18:36;98344.89;;;14.36;87.15
62038;BME280;47991;42.974;12.082;2022-10-26T02:21:18;98347.05;;;14.40;87.18
62038;BME280;47991;42.974;12.082;2022-10-26T02:23:48;98347.98;;;14.44;87.43
62038;BME280;47991;42.974;12.082;2022-10-26T02:26:18;98344.83;;;14.49;87.54
62038;BME280;47991;42.974;12.082;2022-10-26T02:28:53;98348.45;;;14.41;87.23
62038;BME280;47991;42.974;12.082;2022-10-26T02:31:24;98356.56;;;14.38;87.65
62038;BME280;47991;42.974;12.082;2022-10-26T02:33:52;98360.02;;;14.26;88.05
62038;BME280;47991;42.974;12.082;2022-10-26T02:36:24;98361.33;;;14.13;88.26
62038;BME280;47991;42.974;12.082;2022-10-26T02:38:53;98360.90;;;14.15;88.10
62038;BME280;47991;42.974;12.082;2022-10-26T02:41:25;98365.61;;;14.18;88.08
62038;BME280;47991;42.974;12.082;2022-10-26T02:46:41;98363.25;;;14.14;88.01
62038;BME280;47991;42.974;12.082;2022-10-26T02:49:10;98367.48;;;14.15;88.10
62038;BME280;47991;42.974;12.082;2022-10-26T02:52:09;98373.64;;;14.17;88.16
62038;BME280;47991;42.974;12.082;2022-10-26T02:57:23;98370.44;;;14.22;88.04
62038;BME280;47991;42.974;12.082;2022-10-26T02:59:52;98367.55;;;14.24;88.03
62038;BME280;47991;42.974;12.082;2022-10-26T03:02:21;98365.52;;;14.21;88.87
62038;BME280;47991;42.974;12.082;2022-10-26T03:04:50;98365.50;;;14.16;88.82
62038;BME280;47991;42.974;12.082;2022-10-26T03:07:22;98365.73;;;14.14;88.74
62038;BME280;47991;42.974;12.082;2022-10-26T03:09:50;98366.40;;;14.15;89.04
62038;BME280;47991;42.974;12.082;2022-10-26T03:12:17;98370.02;;;14.19;89.02
62038;BME280;47991;42.974;12.082;2022-10-26T03:14:44;98369.60;;;14.16;89.41
62038;BME280;47991;42.974;12.082;2022-10-26T03:17:12;98367.02;;;14.18;89.32
62038;BME280;47991;42.974;12.082;2022-10-26T03:19:39;98365.15;;;14.21;89.15
62038;BME280;47991;42.974;12.082;2022-10-26T03:22:06;98368.06;;;14.19;89.32
62038;BME280;47991;42.974;12.082;2022-10-26T03:24:33;98367.84;;;14.15;89.70
62038;BME280;47991;42.974;12.082;2022-10-26T03:27:01;98370.04;;;14.13;89.64
62038;BME280;47991;42.974;12.082;2022-10-26T03:29:28;98369.64;;;14.14;89.78
62038;BME280;47991;42.974;12.082;2022-10-26T03:31:55;98368.94;;;14.19;89.60
62038;BME280;47991;42.974;12.082;2022-10-26T03:34:23;98370.35;;;14.25;89.42
62038;BME280;47991;42.974;12.082;2022-10-26T03:36:50;98374.29;;;14.29;89.15
62038;BME280;47991;42.974;12.082;2022-10-26T03:39:17;98372.65;;;14.30;88.78
62038;BME280;47991;42.974;12.082;2022-10-26T03:41:44;98374.73;;;14.32;88.77
62038;BME280;47991;42.974;12.082;2022-10-26T03:44:12;98372.90;;;14.34;88.67
62038;BME280;47991;42.974;12.082;2022-10-26T03:46:39;98371.14;;;14.33;88.67
62038;BME280;47991;42.974;12.082;2022-10-26T03:49:06;98371.13;;;14.34;88.77
62038;BME280;47991;42.974;12.082;2022-10-26T03:51:33;98371.73;;;14.36;88.71
62038;BME280;47991;42.974;12.082;2022-10-26T03:54:00;98376.36;;;14.37;88.54
62038;BME280;47991;42.974;12.082;2022-10-26T03:56:27;98380.81;;;14.36;88.79
62038;BME280;47991;42.974;12.082;2022-10-26T03:58:55;98381.69;;;14.37;88.82
62038;BME280;47991;42.974;12.082;2022-10-26T04:01:22;98380.74;;;14.28;88.89
62038;BME280;47991;42.974;12.082;2022-10-26T04:03:50;98379.55;;;14.21;89.14
62038;BME280;47991;42.974;12.082;2022-10-26T04:06:17;98384.59;;;14.19;89.10
62038;BME280;47991;42.974;12.082;2022-10-26T04:08:44;98388.98;;;14.16;89.60
62038;BME280;47991;42.974;12.082;2022-10-26T04:11:11;98390.10;;;14.14;89.82
62038;BME280;47991;42.974;12.082;2022-10-26T04:13:38;98391.50;;;14.14;89.88
62038;BME280;47991;42.974;12.082;2022-10-26T04:16:06;98385.24;;;14.10;89.89
62038;BME280;47991;42.974;12.082;2022-10-26T04:18:34;98384.98;;;14.13;89.52
62038;BME280;47991;42.974;12.082;2022-10-26T04:21:01;98387.79;;;14.14;89.82
62038;BME280;47991;42.974;12.082;2022-10-26T04:23:29;98387.41;;;14.15;89.71
62038;BME280;47991;42.974;12.082;2022-10-26T04:25:56;98385.31;;;14.13;89.84
62038;BME280;47991;42.974;12.082;2022-10-26T04:28:23;98384.70;;;14.11;90.16
62038;BME280;47991;42.974;12.082;2022-10-26T04:30:50;98388.73;;;14.12;90.17
62038;BME280;47991;42.974;12.082;2022-10-26T04:33:18;98388.73;;;14.18;89.89
62038;BME280;47991;42.974;12.082;2022-10-26T04:35:45;98382.02;;;14.16;89.83
62038;BME280;47991;42.974;12.082;2022-10-26T04:38:13;98380.59;;;14.16;89.90
62038;BME280;47991;42.974;12.082;2022-10-26T04:40:41;98385.64;;;14.14;89.75
62038;BME280;47991;42.974;12.082;2022-10-26T04:43:08;98388.05;;;14.06;89.75
62038;BME280;47991;42.974;12.082;2022-10-26T04:45:35;98391.90;;;14.08;89.87
62038;BME280;47991;42.974;12.082;2022-10-26T04:48:08;98392.52;;;14.11;89.59
62038;BME280;47991;42.974;12.082;2022-10-26T04:50:36;98391.06;;;14.12;89.13
62038;BME280;47991;42.974;12.082;2022-10-26T04:53:04;98385.89;;;14.12;89.46
62038;BME280;47991;42.974;12.082;2022-10-26T04:55:33;98383.45;;;14.16;89.20
62038;BME280;47991;42.974;12.082;2022-10-26T04:58:01;98387.73;;;14.15;89.40
62038;BME280;47991;42.974;12.082;2022-10-26T05:00:28;98384.37;;;14.10;89.13
62038;BME280;47991;42.974;12.082;2022-10-26T05:03:00;98379.71;;;14.00;89.38
62038;BME280;47991;42.974;12.082;2022-10-26T05:05:30;98373.86;;;13.93;89.67
62038;BME280;47991;42.974;12.082;2022-10-26T05:07:59;98377.94;;;13.94;89.72
62038;BME280;47991;42.974;12.082;2022-10-26T05:10:26;98382.36;;;13.95;89.90
62038;BME280;47991;42.974;12.082;2022-10-26T05:12:55;98378.26;;;13.96;89.92
62038;BME280;47991;42.974;12.082;2022-10-26T05:15:22;98375.14;;;13.98;89.68
62038;BME280;47991;42.974;12.082;2022-10-26T05:17:59;98379.25;;;14.03;89.43
62038;BME280;47991;42.974;12.082;2022-10-26T05:20:29;98379.35;;;14.06;89.32
62038;BME280;47991;42.974;12.082;2022-10-26T05:22:58;98378.29;;;14.05;89.31
62038;BME280;47991;42.974;12.082;2022-10-26T05:25:29;98372.48;;;14.09;89.17
62038;BME280;47991;42.974;12.082;2022-10-26T05:28:01;98370.30;;;14.10;89.00
62038;BME280;47991;42.974;12.082;2022-10-26T05:30:29;98372.14;;;14.14;88.93
62038;BME280;47991;42.974;12.082;2022-10-26T05:32:58;98366.13;;;14.13;88.54
62038;BME280;47991;42.974;12.082;2022-10-26T05:35:26;98368.50;;;14.05;88.84
62038;BME280;47991;42.974;12.082;2022-10-26T05:37:54;98366.04;;;13.94;89.14
62038;BME280;47991;42.974;12.082;2022-10-26T05:40:22;98362.04;;;13.86;89.25
62038;BME280;47991;42.974;12.082;2022-10-26T05:42:50;98359.14;;;13.81;89.46
62038;BME280;47991;42.974;12.082;2022-10-26T05:45:17;98362.70;;;13.76;89.77
62038;BME280;47991;42.974;12.082;2022-10-26T05:47:45;98369.20;;;13.73;89.57
62038;BME280;47991;42.974;12.082;2022-10-26T05:50:13;98386.99;;;13.72;89.89
62038;BME280;47991;42.974;12.082;2022-10-26T05:52:45;98395.71;;;13.77;90.10
62038;BME280;47991;42.974;12.082;2022-10-26T05:55:15;98403.80;;;13.80;90.37
62038;BME280;47991;42.974;12.082;2022-10-26T05:57:43;98400.11;;;13.67;91.09
62038;BME280;47991;42.974;12.082;2022-10-26T06:00:22;98388.02;;;13.44;92.98
62038;BME280;47991;42.974;12.082;2022-10-26T06:05:51;98402.98;;;13.29;94.06
62038;BME280;47991;42.974;12.082;2022-10-26T06:08:21;98390.88;;;13.31;94.82
62038;BME280;47991;42.974;12.082;2022-10-26T06:10:49;98393.16;;;13.32;95.45
62038;BME280;47991;42.974;12.082;2022-10-26T06:13:17;98396.77;;;13.37;94.80
62038;BME280;47991;42.974;12.082;2022-10-26T06:21:42;98401.13;;;13.39;96.13
62038;BME280;47991;42.974;12.082;2022-10-26T06:30:00;98404.79;;;13.47;94.65
62038;BME280;47991;42.974;12.082;2022-10-26T06:32:30;98408.45;;;13.61;94.02
62038;BME280;47991;42.974;12.082;2022-10-26T06:35:18;98412.95;;;13.71;93.28
62038;BME280;47991;42.974;12.082;2022-10-26T06:37:48;98413.27;;;13.78;94.50
62038;BME280;47991;42.974;12.082;2022-10-26T06:40:16;98407.43;;;13.83;93.89
62038;BME280;47991;42.974;12.082;2022-10-26T06:42:44;98404.71;;;13.79;93.86
62038;BME280;47991;42.974;12.082;2022-10-26T06:45:15;98408.30;;;13.72;94.84
62038;BME280;47991;42.974;12.082;2022-10-26T06:48:09;98410.06;;;13.73;95.24
62038;BME280;47991;42.974;12.082;2022-10-26T06:51:04;98416.51;;;13.77;95.16
62038;BME280;47991;42.974;12.082;2022-10-26T06:56:11;98430.27;;;13.80;94.25
62038;BME280;47991;42.974;12.082;2022-10-26T06:58:39;98437.15;;;13.82;93.81
62038;BME280;47991;42.974;12.082;2022-10-26T07:01:10;98447.80;;;13.89;93.91
62038;BME280;47991;42.974;12.082;2022-10-26T07:03:38;98453.94;;;13.97;93.05
62038;BME280;47991;42.974;12.082;2022-10-26T07:06:05;98448.43;;;13.96;92.83
62038;BME280;47991;42.974;12.082;2022-10-26T07:08:33;98448.94;;;13.92;92.66
62038;BME280;47991;42.974;12.082;2022-10-26T07:11:00;98454.45;;;13.97;93.24
62038;BME280;47991;42.974;12.082;2022-10-26T07:13:28;98460.91;;;14.01;92.69
62038;BME280;47991;42.974;12.082;2022-10-26T07:15:55;98457.94;;;13.99;92.75
62038;BME280;47991;42.974;12.082;2022-10-26T07:18:22;98458.13;;;13.93;93.00
62038;BME280;47991;42.974;12.082;2022-10-26T07:20:49;98459.34;;;13.95;92.66
62038;BME280;47991;42.974;12.082;2022-10-26T07:23:17;98460.44;;;13.94;92.63
62038;BME280;47991;42.974;12.082;2022-10-26T07:25:44;98466.21;;;13.96;93.08
62038;BME280;47991;42.974;12.082;2022-10-26T07:28:11;98468.66;;;13.98;92.89
62038;BME280;47991;42.974;12.082;2022-10-26T07:30:40;98472.83;;;14.07;92.98
62038;BME280;47991;42.974;12.082;2022-10-26T07:33:11;98460.73;;;14.18;92.37
62038;BME280;47991;42.974;12.082;2022-10-26T07:35:39;98459.82;;;14.19;92.07
62038;BME280;47991;42.974;12.082;2022-10-26T07:38:06;98467.41;;;14.15;92.05
62038;BME280;47991;42.974;12.082;2022-10-26T07:40:43;98468.13;;;14.15;92.34
62038;BME280;47991;42.974;12.082;2022-10-26T07:43:10;98462.70;;;14.23;92.20
62038;BME280;47991;42.974;12.082;2022-10-26T07:45:38;98457.33;;;14.25;91.59
62038;BME280;47991;42.974;12.082;2022-10-26T07:48:06;98458.31;;;14.27;91.37
62038;BME280;47991;42.974;12.082;2022-10-26T07:50:34;98459.92;;;14.27;91.15
62038;BME280;47991;42.974;12.082;2022-10-26T07:53:01;98470.56;;;14.22;91.23
62038;BME280;47991;42.974;12.082;2022-10-26T07:55:28;98470.40;;;14.21;91.85
62038;BME280;47991;42.974;12.082;2022-10-26T07:57:56;98467.13;;;14.24;92.55
62038;BME280;47991;42.974;12.082;2022-10-26T08:00:23;98461.77;;;14.25;92.85
62038;BME280;47991;42.974;12.082;2022-10-26T08:02:51;98465.02;;;14.23;92.63
62038;BME280;47991;42.974;12.082;2022-10-26T08:05:18;98464.11;;;14.30;93.03
62038;BME280;47991;42.974;12.082;2022-10-26T08:07:46;98462.23;;;14.37;92.24
62038;BME280;47991;42.974;12.082;2022-10-26T08:10:14;98458.82;;;14.45;92.71
62038;BME280;47991;42.974;12.082;2022-10-26T08:12:42;98462.73;;;14.50;92.91
62038;BME280;47991;42.974;12.082;2022-10-26T08:15:10;98464.70;;;14.55;92.26
62038;BME280;47991;42.974;12.082;2022-10-26T08:17:37;98475.49;;;14.57;91.91
62038;BME280;47991;42.974;12.082;2022-10-26T08:20:05;98478.65;;;14.59;92.11
62038;BME280;47991;42.974;12.082;2022-10-26T08:22:32;98485.03;;;14.76;91.81
62038;BME280;47991;42.974;12.082;2022-10-26T08:25:00;98490.85;;;14.83;90.92
62038;BME280;47991;42.974;12.082;2022-10-26T08:27:27;98500.45;;;14.93;91.12
62038;BME280;47991;42.974;12.082;2022-10-26T08:29:54;98501.89;;;14.98;90.12
62038;BME280;47991;42.974;12.082;2022-10-26T08:32:21;98500.02;;;14.80;89.88
62038;BME280;47991;42.974;12.082;2022-10-26T08:34:49;98496.29;;;14.64;91.54
62038;BME280;47991;42.974;12.082;2022-10-26T08:37:16;98495.95;;;14.69;91.08
62038;BME280;47991;42.974;12.082;2022-10-26T08:39:43;98490.36;;;14.81;90.98
62038;BME280;47991;42.974;12.082;2022-10-26T08:42:33;98490.25;;;14.80;90.27
62038;BME280;47991;42.974;12.082;2022-10-26T08:45:17;98489.66;;;14.97;91.09
62038;BME280;47991;42.974;12.082;2022-10-26T08:47:52;98484.89;;;15.16;90.32
62038;BME280;47991;42.974;12.082;2022-10-26T08:50:30;98476.81;;;15.23;89.75
62038;BME280;47991;42.974;12.082;2022-10-26T08:53:19;98481.66;;;15.17;89.13
62038;BME280;47991;42.974;12.082;2022-10-26T08:56:24;98484.56;;;15.10;89.41
62038;BME280;47991;42.974;12.082;2022-10-26T08:58:57;98484.83;;;15.08;90.76
62038;BME280;47991;42.974;12.082;2022-10-26T09:01:30;98482.98;;;15.15;89.99
62038;BME280;47991;42.974;12.082;2022-10-26T09:03:59;98489.21;;;15.35;90.16
62038;BME280;47991;42.974;12.082;2022-10-26T09:09:37;98495.39;;;15.41;89.14
62038;BME280;47991;42.974;12.082;2022-10-26T09:12:26;98491.63;;;15.42;89.46
62038;BME280;47991;42.974;12.082;2022-10-26T09:18:06;98490.23;;;15.61;89.29
62038;BME280;47991;42.974;12.082;2022-10-26T09:23:53;98491.77;;;15.78;89.10
62038;BME280;47991;42.974;12.082;2022-10-26T09:26:36;98497.53;;;16.00;88.64
62038;BME280;47991;42.974;12.082;2022-10-26T09:29:11;98494.24;;;16.25;87.97
62038;BME280;47991;42.974;12.082;2022-10-26T09:31:43;98496.02;;;16.34;86.62
62038;BME280;47991;42.974;12.082;2022-10-26T09:34:17;98497.83;;;16.19;85.02
62038;BME280;47991;42.974;12.082;2022-10-26T09:36:45;98505.66;;;16.06;86.31
62038;BME280;47991;42.974;12.082;2022-10-26T09:45:17;98516.53;;;16.06;87.02
62038;BME280;47991;42.974;12.082;2022-10-26T09:47:50;98510.02;;;16.27;87.38
62038;BME280;47991;42.974;12.082;2022-10-26T09:50:31;98509.20;;;16.52;85.72
62038;BME280;47991;42.974;12.082;2022-10-26T09:52:59;98510.02;;;16.23;84.30
62038;BME280;47991;42.974;12.082;2022-10-26T09:55:28;98514.12;;;16.00;85.98
62038;BME280;47991;42.974;12.082;2022-10-26T09:58:01;98513.67;;;15.97;87.03
62038;BME280;47991;42.974;12.082;2022-10-26T10:00:30;98512.63;;;16.01;86.66
62038;BME280;47991;42.974;12.082;2022-10-26T10:03:00;98507.55;;;16.22;86.03
62038;BME280;47991;42.974;12.082;2022-10-26T10:05:33;98501.93;;;16.20;85.21
62038;BME280;47991;42.974;12.082;2022-10-26T10:11:07;98508.13;;;16.52;86.29
62038;BME280;47991;42.974;12.082;2022-10-26T10:13:38;98501.23;;;16.55;84.08
62038;BME280;47991;42.974;12.082;2022-10-26T10:16:21;98500.92;;;16.76;84.68
62038;BME280;47991;42.974;12.082;2022-10-26T10:18:55;98495.79;;;16.83;83.12
62038;BME280;47991;42.974;12.082;2022-10-26T10:21:43;98492.95;;;17.17;83.32
62038;BME280;47991;42.974;12.082;2022-10-26T10:24:29;98493.69;;;17.57;81.73
62038;BME280;47991;42.974;12.082;2022-10-26T10:29:45;98496.62;;;18.33;81.14
62038;BME280;47991;42.974;12.082;2022-10-26T10:32:15;98499.27;;;18.45;78.99
62038;BME280;47991;42.974;12.082;2022-10-26T10:34:50;98495.95;;;18.55;78.61
62038;BME280;47991;42.974;12.082;2022-10-26T10:39:47;98499.19;;;18.65;77.52
62038;BME280;47991;42.974;12.082;2022-10-26T10:42:21;98497.35;;;18.66;75.45
62038;BME280;47991;42.974;12.082;2022-10-26T10:44:52;98490.55;;;18.51;76.08
62038;BME280;47991;42.974;12.082;2022-10-26T10:47:32;98486.42;;;18.51;76.22
62038;BME280;47991;42.974;12.082;2022-10-26T10:50:06;98486.15;;;18.61;76.00
62038;BME280;47991;42.974;12.082;2022-10-26T10:52:34;98484.02;;;18.31;75.75
62038;BME280;47991;42.974;12.082;2022-10-26T11:00:18;98476.23;;;18.36;75.96
62038;BME280;47991;42.974;12.082;2022-10-26T11:02:50;98472.02;;;18.46;73.79
62038;BME280;47991;42.974;12.082;2022-10-26T11:05:43;98471.94;;;18.62;73.47
62038;BME280;47991;42.974;12.082;2022-10-26T11:08:36;98471.17;;;18.88;72.50
62038;BME280;47991;42.974;12.082;2022-10-26T11:13:43;98473.90;;;20.03;69.10
62038;BME280;47991;42.974;12.082;2022-10-26T11:16:23;98468.12;;;20.52;68.44
62038;BME280;47991;42.974;12.082;2022-10-26T11:18:57;98467.83;;;21.27;67.63
62038;BME280;47991;42.974;12.082;2022-10-26T11:21:30;98463.47;;;21.95;65.01
62038;BME280;47991;42.974;12.082;2022-10-26T11:27:03;98465.10;;;21.78;65.63
62038;BME280;47991;42.974;12.082;2022-10-26T11:35:13;98464.62;;;21.80;62.82
62038;BME280;47991;42.974;12.082;2022-10-26T11:43:20;98462.08;;;21.18;62.90
62038;BME280;47991;42.974;12.082;2022-10-26T11:51:35;98463.75;;;21.32;63.53
62038;BME280;47991;42.974;12.082;2022-10-26T11:54:52;98460.37;;;21.20;63.52
62038;BME280;47991;42.974;12.082;2022-10-26T11:57:01;98460.33;;;21.32;63.73
62038;BME280;47991;42.974;12.082;2022-10-26T11:59:36;98459.94;;;21.33;63.83
62038;BME280;47991;42.974;12.082;2022-10-26T12:02:41;98458.77;;;21.43;64.59
62038;BME280;47991;42.974;12.082;2022-10-26T12:05:16;98461.19;;;21.54;63.96
62038;BME280;47991;42.974;12.082;2022-10-26T12:07:59;98448.02;;;21.89;64.21
62038;BME280;47991;42.974;12.082;2022-10-26T12:10:34;98442.55;;;22.46;61.63
62038;BME280;47991;42.974;12.082;2022-10-26T12:13:23;98439.36;;;22.59;60.95
62038;BME280;47991;42.974;12.082;2022-10-26T12:18:47;98440.80;;;23.02;60.47
62038;BME280;47991;42.974;12.082;2022-10-26T12:21:16;98440.36;;;23.03;60.30
62038;BME280;47991;42.974;12.082;2022-10-26T12:24:01;98438.52;;;23.09;60.67
62038;BME280;47991;42.974;12.082;2022-10-26T12:26:59;98434.20;;;22.95;61.12
62038;BME280;47991;42.974;12.082;2022-10-26T12:29:45;98428.40;;;22.80;60.91
62038;BME280;47991;42.974;12.082;2022-10-26T12:35:01;98428.45;;;22.77;62.16
62038;BME280;47991;42.974;12.082;2022-10-26T12:37:32;98430.80;;;22.90;62.96
62038;BME280;47991;42.974;12.082;2022-10-26T12:42:57;98424.96;;;23.15;60.90
62038;BME280;47991;42.974;12.082;2022-10-26T12:45:46;98425.53;;;23.35;60.29
62038;BME280;47991;42.974;12.082;2022-10-26T12:48:46;98422.83;;;23.48;60.52
62038;BME280;47991;42.974;12.082;2022-10-26T12:54:26;98420.20;;;23.34;60.39
62038;BME280;47991;42.974;12.082;2022-10-26T12:57:20;98422.50;;;23.25;60.39
62038;BME280;47991;42.974;12.082;2022-10-26T13:00:03;98423.70;;;23.04;59.62
62038;BME280;47991;42.974;12.082;2022-10-26T13:08:09;98424.11;;;23.40;60.47
62038;BME280;47991;42.974;12.082;2022-10-26T13:11:28;98424.10;;;23.61;60.96
62038;BME280;47991;42.974;12.082;2022-10-26T13:13:31;98421.76;;;23.68;61.18
62038;BME280;47991;42.974;12.082;2022-10-26T13:16:00;98421.90;;;23.87;61.04
62038;BME280;47991;42.974;12.082;2022-10-26T13:18:29;98419.22;;;24.01;60.42
62038;BME280;47991;42.974;12.082;2022-10-26T13:21:26;98419.63;;;24.13;60.05
62038;BME280;47991;42.974;12.082;2022-10-26T13:26:26;98410.19;;;24.12;59.91
62038;BME280;47991;42.974;12.082;2022-10-26T13:28:58;98407.44;;;24.19;59.53
62038;BME280;47991;42.974;12.082;2022-10-26T13:34:17;98405.63;;;24.19;59.38
62038;BME280;47991;42.974;12.082;2022-10-26T13:37:06;98408.21;;;24.11;58.63
62038;BME280;47991;42.974;12.082;2022-10-26T13:39:46;98412.83;;;24.00;58.71
62038;BME280;47991;42.974;12.082;2022-10-26T13:42:18;98415.14;;;23.93;59.35
62038;BME280;47991;42.974;12.082;2022-10-26T13:47:21;98419.14;;;23.67;60.13
62038;BME280;47991;42.974;12.082;2022-10-26T13:49:52;98415.24;;;23.61;59.92
62038;BME280;47991;42.974;12.082;2022-10-26T13:52:40;98417.88;;;23.67;60.08
62038;BME280;47991;42.974;12.082;2022-10-26T13:55:30;98418.20;;;23.73;60.94
62038;BME280;47991;42.974;12.082;2022-10-26T14:03:36;98421.84;;;24.05;60.05
62038;BME280;47991;42.974;12.082;2022-10-26T14:08:56;98425.31;;;23.85;59.24
62038;BME280;47991;42.974;12.082;2022-10-26T14:11:42;98418.86;;;23.76;59.25
62038;BME280;47991;42.974;12.082;2022-10-26T14:16:49;98424.42;;;23.51;60.46
62038;BME280;47991;42.974;12.082;2022-10-26T14:19:32;98425.20;;;23.40;60.46
62038;BME280;47991;42.974;12.082;2022-10-26T14:22:00;98427.20;;;23.27;59.96
62038;BME280;47991;42.974;12.082;2022-10-26T14:24:30;98425.34;;;23.17;60.66
62038;BME280;47991;42.974;12.082;2022-10-26T14:26:58;98424.91;;;23.08;60.92
62038;BME280;47991;42.974;12.082;2022-10-26T14:29:30;98423.92;;;23.01;61.15
62038;BME280;47991;42.974;12.082;2022-10-26T14:31:57;98424.50;;;22.92;61.27
62038;BME280;47991;42.974;12.082;2022-10-26T14:34:25;98425.53;;;22.90;61.39
62038;BME280;47991;42.974;12.082;2022-10-26T14:36:56;98426.25;;;22.82;61.63
62038;BME280;47991;42.974;12.082;2022-10-26T14:39:35;98428.05;;;22.83;61.91
62038;BME280;47991;42.974;12.082;2022-10-26T14:44:41;98429.92;;;22.89;61.90
62038;BME280;47991;42.974;12.082;2022-10-26T14:47:22;98433.54;;;22.87;61.86
62038;BME280;47991;42.974;12.082;2022-10-26T14:49:49;98432.40;;;22.77;62.30
62038;BME280;47991;42.974;12.082;2022-10-26T14:52:23;98434.14;;;22.70;62.46
62038;BME280;47991;42.974;12.082;2022-10-26T14:55:03;98432.39;;;22.64;62.52
62038;BME280;47991;42.974;12.082;2022-10-26T14:57:34;98436.08;;;22.54;62.84
62038;BME280;47991;42.974;12.082;2022-10-26T15:00:19;98430.60;;;22.50;62.81
62038;BME280;47991;42.974;12.082;2022-10-26T15:02:49;98437.38;;;22.40;63.32
62038;BME280;47991;42.974;12.082;2022-10-26T15:05:27;98437.38;;;22.37;63.24
62038;BME280;47991;42.974;12.082;2022-10-26T15:07:59;98441.23;;;22.36;63.45
62038;BME280;47991;42.974;12.082;2022-10-26T15:13:30;98440.23;;;22.26;63.67
62038;BME280;47991;42.974;12.082;2022-10-26T15:16:22;98448.41;;;22.08;64.33
62038;BME280;47991;42.974;12.082;2022-10-26T15:19:15;98452.02;;;21.91;64.88
62038;BME280;47991;42.974;12.082;2022-10-26T15:21:47;98448.47;;;21.82;65.27
62038;BME280;47991;42.974;12.082;2022-10-26T15:26:47;98447.66;;;21.60;65.97
62038;BME280;47991;42.974;12.082;2022-10-26T15:29:39;98447.92;;;21.44;66.39
62038;BME280;47991;42.974;12.082;2022-10-26T15:35:14;98449.60;;;21.20;66.76
62038;BME280;47991;42.974;12.082;2022-10-26T15:37:42;98447.56;;;21.20;66.93
62038;BME280;47991;42.974;12.082;2022-10-26T15:40:11;98450.08;;;21.20;67.04
62038;BME280;47991;42.974;12.082;2022-10-26T15:42:40;98455.62;;;21.18;67.24
62038;BME280;47991;42.974;12.082;2022-10-26T15:45:19;98455.48;;;21.11;67.52
62038;BME280;47991;42.974;12.082;2022-10-26T15:47:47;98460.81;;;21.03;68.17
62038;BME280;47991;42.974;12.082;2022-10-26T15:50:21;98457.01;;;20.95;68.21